Time;durP1;ratioP1;P1;durP2;ratioP2;P2;SDS_P1;SDS_P2;PMS_P1;PMS_P2;Temp;Humidity;BMP_temperature;BMP_pressure;BME280_temperature;BME280_humidity;BME280_pressure;Samples;Min_cycle;Max_cycle;Signal;HPM_P1;HPM_P2
2021/05/13 04:35:21;;;;;;;29.70;17.77;;;;;;;7.97;81.89;99756.60;1676038;84;21697;-37
2021/05/13 04:37:47;;;;;;;33.23;21.33;;;;;;;7.93;81.86;99752.24;1707576;82;21091;-40
2021/05/13 04:40:14;;;;;;;32.93;22.98;;;;;;;7.98;82.49;99756.59;1718897;81;21084;-43
2021/05/13 04:42:41;;;;;;;34.50;22.65;;;;;;;8.11;82.84;99754.01;1707007;82;21038;-36
2021/05/13 04:45:09;;;;;;;35.95;22.42;;;;;;;8.25;82.62;99744.48;1712988;82;21110;-42
2021/05/13 04:50:09;;;;;;;;;;;;;;;8.57;82.11;99741.03;1711219;81;21060;-37
2021/05/13 04:53:43;;;;;;;28.25;19.75;;;;;;;8.87;82.36;99728.38;1800340;79;22820;-36
2021/05/13 04:56:10;;;;;;;29.95;19.05;;;;;;;9.03;81.68;99726.17;1763084;80;21090;-36
2021/05/13 04:58:37;;;;;;;29.55;21.70;;;;;;;9.20;80.71;99730.03;1770950;80;21050;-42
2021/05/13 05:01:03;;;;;;;35.28;21.57;;;;;;;9.36;80.12;99735.64;1768673;79;21107;-36
2021/05/13 05:03:30;;;;;;;32.85;21.35;;;;;;;9.52;79.49;99732.53;1769443;80;21111;-36
2021/05/13 05:05:57;;;;;;;35.58;22.45;;;;;;;9.68;79.20;99732.86;1764924;80;21093;-37
2021/05/13 05:08:23;;;;;;;29.07;21.85;;;;;;;9.87;78.79;99728.42;1767232;79;21113;-37
2021/05/13 05:10:50;;;;;;;32.88;23.38;;;;;;;10.04;77.90;99721.34;1766786;80;21243;-36
2021/05/13 05:13:19;;;;;;;34.30;21.70;;;;;;;10.22;77.44;99725.56;1769964;80;22441;-36
2021/05/13 05:15:47;;;;;;;30.80;20.27;;;;;;;10.40;77.24;99723.27;1763389;79;21671;-36
2021/05/13 05:18:19;;;;;;;27.52;19.98;;;;;;;10.58;76.83;99732.70;1769251;80;21720;-41
2021/05/13 05:20:46;;;;;;;;;;;;;;;10.72;76.15;99730.81;1769069;79;21054;-36
2021/05/13 05:23:13;;;;;;;28.92;19.50;;;;;;;10.88;75.89;99729.79;1765783;79;20183;-42
2021/05/13 05:25:42;;;;;;;25.35;17.92;;;;;;;11.04;75.19;99739.66;1762364;79;21162;-43
2021/05/13 05:28:14;;;;;;;20.17;14.87;;;;;;;11.19;74.69;99743.88;1764866;79;21089;-36
2021/05/13 05:30:50;;;;;;;26.00;18.07;;;;;;;11.34;74.06;99746.30;1740187;80;22044;-40
2021/05/13 05:33:18;;;;;;;23.45;16.10;;;;;;;11.47;73.31;99744.40;1740801;79;21425;-42
2021/05/13 05:35:45;;;;;;;17.45;13.70;;;;;;;11.62;72.83;99742.91;1767603;79;21133;-41
2021/05/13 05:38:11;;;;;;;18.90;9.68;;;;;;;11.75;72.01;99744.91;1763565;80;21051;-37
2021/05/13 05:40:39;;;;;;;16.00;11.75;;;;;;;11.85;70.72;99745.70;1761187;79;21128;-43
2021/05/13 05:43:05;;;;;;;12.28;10.25;;;;;;;11.91;70.72;99753.48;1763543;79;21022;-42
2021/05/13 05:45:32;;;;;;;11.73;8.33;;;;;;;11.97;69.07;99758.19;1759800;79;21141;-43
2021/05/13 05:48:03;;;;;;;11.10;7.50;;;;;;;11.96;66.87;99749.04;1734229;81;21052;-34
2021/05/13 05:50:32;;;;;;;13.40;8.15;;;;;;;11.89;67.61;99744.78;1719000;83;21093;-42
2021/05/13 05:53:03;;;;;;;13.48;6.35;;;;;;;11.88;67.25;99742.57;1725584;81;21079;-36
2021/05/13 05:55:31;;;;;;;10.58;5.37;;;;;;;11.96;68.44;99738.55;1722497;81;21476;-37
2021/05/13 05:57:58;;;;;;;9.40;5.62;;;;;;;12.09;66.29;99743.16;1719740;82;21026;-37
2021/05/13 06:00:25;;;;;;;5.97;5.08;;;;;;;12.13;65.58;99747.04;1715122;82;21356;-36
2021/05/13 06:02:52;;;;;;;6.50;5.78;;;;;;;12.17;65.72;99750.02;1716684;82;21413;-36
2021/05/13 06:05:20;;;;;;;10.63;5.30;;;;;;;12.25;65.40;99753.85;1752499;80;21093;-36
2021/05/13 06:07:46;;;;;;;6.28;5.65;;;;;;;12.27;65.61;99742.02;1754006;81;21032;-36
2021/05/13 06:10:14;;;;;;;14.05;4.92;;;;;;;12.38;66.43;99737.47;1756643;80;21083;-36
2021/05/13 06:12:42;;;;;;;7.87;3.75;;;;;;;12.55;65.49;99741.13;1760010;81;21549;-42
2021/05/13 06:15:11;;;;;;;5.83;4.15;;;;;;;12.69;64.70;99748.31;1754240;80;21095;-36
2021/05/13 06:17:38;;;;;;;6.08;3.98;;;;;;;12.79;64.01;99744.64;1757227;81;21029;-36
2021/05/13 06:20:07;;;;;;;7.35;3.77;;;;;;;12.90;63.22;99740.06;1755829;80;21145;-36
2021/05/13 06:22:35;;;;;;;8.18;3.92;;;;;;;13.01;63.08;99743.36;1756951;80;21097;-42
2021/05/13 06:25:04;;;;;;;7.15;3.30;;;;;;;13.12;62.43;99737.91;1751882;80;21051;-41
2021/05/13 06:27:32;;;;;;;5.53;4.25;;;;;;;13.25;61.91;99741.19;1754017;80;21563;-42
2021/05/13 06:30:00;;;;;;;7.85;5.30;;;;;;;13.34;62.21;99739.71;1753047;80;21069;-42
2021/05/13 06:32:27;;;;;;;12.50;4.40;;;;;;;13.44;60.57;99733.80;1752550;80;21745;-41
2021/05/13 06:34:55;;;;;;;14.43;4.50;;;;;;;13.54;61.04;99743.23;1752532;81;21105;-41
2021/05/13 06:37:23;;;;;;;6.87;4.17;;;;;;;13.63;60.31;99738.25;1731145;80;21106;-37
2021/05/13 06:39:50;;;;;;;7.85;4.12;;;;;;;13.73;59.90;99741.93;1753484;80;21647;-42
2021/05/13 06:42:17;;;;;;;8.88;3.72;;;;;;;13.80;59.48;99731.72;1752814;80;21133;-36
2021/05/13 06:44:44;;;;;;;6.22;3.52;;;;;;;13.87;58.85;99742.11;1752512;80;21089;-42
2021/05/13 06:47:12;;;;;;;6.42;4.05;;;;;;;13.87;58.75;99736.39;1754853;80;21129;-42
2021/05/13 06:49:40;;;;;;;4.12;3.72;;;;;;;13.93;58.14;99739.34;1752361;80;21559;-42
2021/05/13 06:52:07;;;;;;;6.40;3.50;;;;;;;14.02;57.84;99733.39;1751660;80;21163;-42
2021/05/13 06:54:34;;;;;;;4.15;3.75;;;;;;;14.11;57.62;99734.97;1758470;80;21057;-37
2021/05/13 06:57:01;;;;;;;6.47;3.10;;;;;;;14.16;57.20;99740.13;1769279;80;21118;-37
2021/05/13 06:59:30;;;;;;;3.10;2.77;;;;;;;14.17;56.72;99740.53;1764437;80;21090;-37
2021/05/13 07:01:57;;;;;;;7.85;3.33;;;;;;;14.23;56.08;99745.66;1762942;80;21462;-42
2021/05/13 07:04:24;;;;;;;11.57;3.60;;;;;;;14.29;56.68;99740.24;1764024;80;21589;-36
2021/05/13 07:06:50;;;;;;;5.28;3.42;;;;;;;14.38;57.30;99737.41;1765433;80;21676;-41
2021/05/13 07:09:18;;;;;;;5.80;3.52;;;;;;;14.51;56.86;99738.00;1762718;80;21011;-42
2021/05/13 07:11:47;;;;;;;3.40;3.10;;;;;;;14.63;56.37;99744.27;1759897;80;21113;-42
2021/05/13 07:14:17;;;;;;;6.17;3.65;;;;;;;14.69;55.61;99744.11;1699194;80;21040;-42
2021/05/13 07:16:59;;;;;;;6.80;3.65;;;;;;;14.62;55.69;99740.77;1765118;80;21134;-42
2021/05/13 07:19:31;;;;;;;5.10;3.20;;;;;;;14.66;55.97;99736.73;1741741;80;21740;-41
2021/05/13 07:22:00;;;;;;;7.05;3.92;;;;;;;14.74;56.54;99734.78;1761370;80;21422;-43
2021/05/13 07:24:30;;;;;;;7.42;3.17;;;;;;;14.85;56.13;99740.18;1761982;80;22042;-37
2021/05/13 07:27:09;;;;;;;4.80;2.35;;;;;;;14.94;55.70;99740.38;1746611;80;21097;-36
2021/05/13 07:29:37;;;;;;;3.12;2.80;;;;;;;15.03;54.69;99737.51;1760901;80;21121;-42
2021/05/13 07:32:04;;;;;;;7.22;2.50;;;;;;;15.10;54.16;99730.30;1708923;82;21545;-42
2021/05/13 07:34:33;;;;;;;3.85;2.83;;;;;;;15.18;53.64;99737.52;1760286;80;21063;-42
2021/05/13 07:37:03;;;;;;;4.00;2.30;;;;;;;15.25;53.32;99739.11;1762605;80;21598;-42
2021/05/13 07:39:34;;;;;;;2.75;1.70;;;;;;;15.34;52.81;99733.56;1762188;80;21146;-38
2021/05/13 07:42:04;;;;;;;2.87;1.60;;;;;;;15.42;51.81;99725.00;1721292;80;21134;-38
2021/05/13 07:44:31;;;;;;;3.17;2.12;;;;;;;15.54;51.40;99730.80;1760100;80;21071;-37
2021/05/13 07:46:58;;;;;;;2.50;2.00;;;;;;;15.64;51.38;99729.20;1704645;82;21131;-42
2021/05/13 07:49:27;;;;;;;3.20;2.17;;;;;;;15.75;50.17;99728.03;1757927;80;21380;-38
2021/05/13 07:51:54;;;;;;;7.65;2.10;;;;;;;15.84;49.24;99736.53;1758325;80;21503;-42
2021/05/13 07:54:22;;;;;;;4.25;1.90;;;;;;;15.86;49.51;99729.43;1763625;80;21125;-42
2021/05/13 07:56:49;;;;;;;4.12;1.90;;;;;;;15.91;47.83;99733.25;1762150;80;21618;-43
2021/05/13 07:59:16;;;;;;;7.45;1.90;;;;;;;15.89;48.20;99724.53;1764490;80;21618;-37
2021/05/13 08:01:51;;;;;;;4.67;2.25;;;;;;;15.91;48.60;99722.24;1762251;80;21138;-36
2021/05/13 08:04:21;;;;;;;10.30;2.00;;;;;;;16.00;48.89;99728.13;1731066;80;21708;-43
2021/05/13 08:06:50;;;;;;;3.67;1.80;;;;;;;16.12;49.33;99720.72;1755264;80;22146;-38
2021/05/13 08:09:17;;;;;;;5.15;2.20;;;;;;;16.28;49.72;99718.89;1766810;80;21000;-37
2021/05/13 08:11:46;;;;;;;7.35;1.60;;;;;;;16.36;48.93;99717.74;1766922;80;21424;-42
2021/05/13 08:14:44;;;;;;;7.03;1.55;;;;;;;16.47;48.32;99714.30;1712306;83;21694;-37
2021/05/13 08:18:14;;;;;;;4.28;1.60;;;;;;;16.62;48.17;99719.96;1702560;83;21146;-44
2021/05/13 08:25:29;;;;;;;2.08;1.82;;;;;;;16.93;47.16;99712.76;1709666;83;21409;-44
2021/05/13 08:31:16;;;;;;;2.27;2.08;;;;;;;16.83;46.83;99711.81;1710413;83;21996;-42
2021/05/13 08:33:55;;;;;;;4.10;1.60;;;;;;;16.90;45.74;99708.89;1701228;83;21063;-42
2021/05/13 08:36:58;;;;;;;5.05;1.90;;;;;;;16.98;45.39;99698.90;1705577;83;21067;-39
2021/05/13 08:40:00;;;;;;;1.95;1.75;;;;;;;17.02;45.33;99703.63;1710233;83;21125;-42
2021/05/13 08:42:45;;;;;;;1.82;1.40;;;;;;;17.14;45.53;99702.33;1703616;83;21179;-43
2021/05/13 08:45:13;;;;;;;1.65;1.35;;;;;;;17.26;45.23;99699.23;1707723;83;21109;-44
2021/05/13 08:47:45;;;;;;;2.12;1.72;;;;;;;17.29;44.06;99700.45;1728882;82;21845;-43
2021/05/13 08:50:14;;;;;;;1.65;1.55;;;;;;;17.27;45.13;99701.81;1730457;82;21127;-36
2021/05/13 08:52:42;;;;;;;1.70;1.25;;;;;;;17.34;44.75;99697.19;1711252;83;21058;-43
2021/05/13 08:55:10;;;;;;;3.00;1.00;;;;;;;17.47;43.77;99692.30;1749938;80;21106;-43
2021/05/13 08:57:46;;;;;;;1.37;1.27;;;;;;;17.61;43.72;99690.44;1750972;80;21064;-42
2021/05/13 09:00:17;;;;;;;1.50;1.30;;;;;;;17.72;42.72;99687.81;1738566;80;21093;-44
2021/05/13 09:02:51;;;;;;;1.70;1.60;;;;;;;17.72;42.33;99686.48;1737132;81;21445;-37
2021/05/13 09:05:19;;;;;;;7.53;1.50;;;;;;;17.65;43.10;99694.23;1721317;81;21091;-45
2021/05/13 09:07:48;;;;;;;3.35;1.57;;;;;;;17.63;43.05;99691.27;1750036;80;21321;-40
2021/05/13 09:10:17;;;;;;;2.92;1.90;;;;;;;17.63;42.67;99684.65;1753540;80;21118;-37
2021/05/13 09:13:30;;;;;;;1.60;1.17;;;;;;;17.63;43.07;99693.45;1747120;80;21055;-43
2021/05/13 09:16:50;;;;;;;4.33;1.15;;;;;;;17.61;42.52;99695.27;1740281;80;21098;-43
2021/05/13 09:19:42;;;;;;;4.37;1.50;;;;;;;17.57;42.49;99695.00;1753407;81;21651;-44
2021/05/13 09:22:10;;;;;;;2.12;2.02;;;;;;;17.61;42.71;99695.73;1720778;82;21470;-44
2021/05/13 09:24:58;;;;;;;2.72;1.80;;;;;;;17.64;42.24;99696.95;1718635;81;21060;-37
2021/05/13 09:34:39;;;;;;;1.32;1.20;;;;;;;17.45;41.36;99691.04;1757130;81;21603;-37
2021/05/13 09:37:37;;;;;;;;;;;;;;;17.23;41.16;99690.11;1753174;80;21074;-43
2021/05/13 09:40:11;;;;;;;3.35;1.40;;;;;;;17.17;42.08;99683.73;1751231;81;20174;-42
2021/05/13 09:42:38;;;;;;;2.87;1.45;;;;;;;17.22;41.44;99687.92;1749016;80;21034;-38
2021/05/13 09:45:08;;;;;;;1.65;1.45;;;;;;;17.25;42.96;99685.61;1749228;81;21119;-42
2021/05/13 09:47:36;;;;;;;7.15;1.40;;;;;;;17.25;42.81;99683.83;1756008;80;21078;-37
2021/05/13 09:50:21;;;;;;;2.15;1.47;;;;;;;17.27;43.21;99683.77;1755106;80;21033;-43
2021/05/13 09:52:53;;;;;;;1.70;1.50;;;;;;;17.26;42.88;99679.41;1751421;80;21038;-43
2021/05/13 09:55:34;;;;;;;3.73;1.40;;;;;;;17.27;43.13;99681.98;1759890;80;21621;-42
2021/05/13 09:58:06;;;;;;;6.35;1.80;;;;;;;17.33;42.91;99686.64;1760894;80;21325;-38
2021/05/13 10:00:42;;;;;;;5.72;1.50;;;;;;;17.33;43.89;99687.50;1762603;80;21132;-37
2021/05/13 10:03:18;;;;;;;5.92;1.30;;;;;;;17.30;43.03;99692.92;1761003;80;20978;-37
2021/05/13 10:05:53;;;;;;;2.45;1.60;;;;;;;17.25;43.45;99690.91;1762798;80;21090;-36
2021/05/13 10:08:28;;;;;;;1.62;1.42;;;;;;;17.24;43.68;99685.22;1759466;80;21057;-37
2021/05/13 10:10:51;;;;;;;3.20;1.77;;;;;;;17.22;44.02;99683.07;1756735;80;22014;-38
2021/05/13 10:13:19;;;;;;;1.92;1.80;;;;;;;17.26;44.34;99688.66;1764594;80;21271;-41
2021/05/13 10:15:49;;;;;;;10.08;1.87;;;;;;;17.27;44.51;99683.30;1735455;80;21082;-36
2021/05/13 10:18:28;;;;;;;3.47;1.37;;;;;;;17.29;44.25;99681.95;1758739;80;21045;-41
2021/05/13 10:21:05;;;;;;;3.00;1.57;;;;;;;17.26;43.37;99681.59;1759149;80;21950;-36
2021/05/13 10:23:33;;;;;;;4.55;1.70;;;;;;;17.18;42.43;99678.84;1759204;80;21042;-37
2021/05/13 10:26:00;;;;;;;3.15;1.50;;;;;;;17.08;43.01;99683.59;1762383;80;21445;-36
2021/05/13 10:28:29;;;;;;;1.70;1.30;;;;;;;17.06;42.62;99681.47;1757942;80;21411;-36
2021/05/13 10:31:07;;;;;;;1.85;1.70;;;;;;;17.04;43.10;99678.00;1757428;80;21700;-41
2021/05/13 10:33:49;;;;;;;3.65;1.82;;;;;;;17.04;42.98;99681.96;1692470;80;21105;-37
2021/05/13 10:36:18;;;;;;;2.67;1.80;;;;;;;16.97;41.85;99686.61;1763276;80;21087;-43
2021/05/13 10:39:07;;;;;;;1.92;1.70;;;;;;;16.83;41.63;99680.97;1757041;80;21174;-38
2021/05/13 10:41:47;;;;;;;2.87;1.40;;;;;;;16.70;42.15;99684.50;1753986;80;21087;-42
2021/05/13 10:44:20;;;;;;;2.50;2.10;;;;;;;16.63;43.29;99692.17;1738516;80;21093;-42
2021/05/13 10:46:55;;;;;;;3.17;1.65;;;;;;;16.60;42.84;99690.11;1764384;80;21275;-42
2021/05/13 10:49:24;;;;;;;3.50;1.22;;;;;;;16.59;42.72;99687.94;1763331;80;21026;-38
2021/05/13 10:51:53;;;;;;;5.03;1.60;;;;;;;16.60;42.66;99687.47;1758962;80;21246;-43
2021/05/13 10:54:35;;;;;;;2.80;1.42;;;;;;;16.59;42.19;99686.61;1758173;80;21422;-38
2021/05/13 10:57:20;;;;;;;1.80;1.20;;;;;;;16.59;42.61;99691.03;1751134;80;21080;-38
2021/05/13 11:00:11;;;;;;;5.05;1.82;;;;;;;16.64;42.64;99691.28;1755738;80;21094;-36
2021/05/13 11:02:45;;;;;;;5.67;1.60;;;;;;;16.70;42.58;99692.42;1702207;82;21716;-37
2021/05/13 11:05:38;;;;;;;4.35;1.37;;;;;;;16.74;42.36;99681.28;1750566;80;21047;-37
2021/05/13 11:08:10;;;;;;;7.22;1.42;;;;;;;16.78;42.62;99680.72;1751974;80;21568;-40
2021/05/13 11:11:01;;;;;;;3.17;1.60;;;;;;;16.84;43.06;99679.19;1750697;80;21689;-43
2021/05/13 11:13:42;;;;;;;3.55;1.47;;;;;;;16.97;42.56;99682.64;1710972;81;21612;-43
2021/05/13 11:16:46;;;;;;;1.98;1.20;;;;;;;17.16;41.49;99681.55;1750912;80;21670;-44
2021/05/13 11:19:20;;;;;;;3.20;1.50;;;;;;;17.34;40.20;99677.36;1744514;80;21037;-44
2021/05/13 11:22:00;;;;;;;8.30;1.70;;;;;;;17.55;40.35;99674.34;1713374;81;21059;-38
2021/05/13 11:24:37;;;;;;;6.83;1.85;;;;;;;17.78;40.53;99673.02;1762502;80;21024;-38
2021/05/13 11:27:05;;;;;;;12.47;1.57;;;;;;;18.08;39.58;99669.61;1750439;80;21503;-36
2021/05/13 11:29:47;;;;;;;3.12;1.55;;;;;;;18.32;39.78;99661.58;1752154;80;21082;-37
2021/05/13 11:32:14;;;;;;;3.17;2.10;;;;;;;18.55;39.40;99660.17;1750470;80;21137;-37
2021/05/13 11:34:43;;;;;;;3.45;1.35;;;;;;;18.87;38.55;99664.56;1750778;80;21641;-37
2021/05/13 11:37:12;;;;;;;2.83;1.40;;;;;;;19.14;38.53;99652.73;1748917;80;21754;-37
2021/05/13 11:39:40;;;;;;;4.25;1.27;;;;;;;19.44;37.90;99646.09;1731299;80;21114;-37
2021/05/13 11:42:07;;;;;;;4.42;1.50;;;;;;;19.68;37.66;99649.42;1750875;80;21712;-38
2021/05/13 11:44:34;;;;;;;3.98;1.50;;;;;;;19.89;37.48;99644.42;1759166;80;21038;-37
2021/05/13 11:47:00;;;;;;;6.85;1.55;;;;;;;20.04;36.56;99641.47;1754383;81;21167;-38
2021/05/13 11:49:37;;;;;;;1.90;1.30;;;;;;;20.13;35.71;99640.55;1752668;80;21000;-36
2021/05/13 11:52:04;;;;;;;1.67;1.20;;;;;;;20.25;35.03;99632.91;1672627;82;21665;-36
2021/05/13 11:54:34;;;;;;;4.90;1.20;;;;;;;20.31;35.01;99633.94;1757887;80;21046;-37
2021/05/13 11:57:02;;;;;;;6.72;1.20;;;;;;;20.32;35.32;99635.65;1761846;80;21136;-42
2021/05/13 11:59:29;;;;;;;1.40;1.30;;;;;;;20.31;35.32;99639.25;1752960;80;21023;-42
2021/05/13 12:02:01;;;;;;;4.03;1.15;;;;;;;20.19;32.47;99636.27;1765872;80;21593;-43
2021/05/13 12:04:24;;;;;;;23.70;1.75;;;;;;;20.08;33.39;99635.08;1756682;80;21011;-42
2021/05/13 12:07:00;;;;;;;2.12;1.10;;;;;;;20.05;33.64;99631.23;1756419;80;21119;-43
2021/05/13 12:09:28;;;;;;;1.30;1.10;;;;;;;20.03;32.09;99640.61;1758116;80;21018;-44
2021/05/13 12:11:55;;;;;;;1.00;1.00;;;;;;;19.96;32.94;99625.92;1763285;80;21453;-47
2021/05/13 12:14:31;;;;;;;7.45;1.67;;;;;;;19.96;33.66;99628.58;1761492;80;21044;-37
2021/05/13 12:17:09;;;;;;;2.52;1.25;;;;;;;20.00;34.79;99625.28;1757864;80;21074;-43
2021/05/13 12:19:42;;;;;;;2.35;1.45;;;;;;;20.08;35.08;99631.95;1765890;80;21074;-42
2021/05/13 12:22:11;;;;;;;3.25;1.32;;;;;;;20.14;35.29;99624.16;1764576;80;21118;-36
2021/05/13 12:24:42;;;;;;;5.58;1.37;;;;;;;20.15;35.46;99620.09;1753285;80;21366;-37
2021/05/13 12:27:16;;;;;;;7.05;1.70;;;;;;;20.14;34.77;99618.84;1750509;80;21059;-34
2021/05/13 12:29:49;;;;;;;5.85;1.37;;;;;;;20.18;36.12;99617.77;1751431;82;21095;-40
2021/05/13 12:32:34;;;;;;;6.72;1.77;;;;;;;20.26;35.66;99620.87;1752462;80;21075;-35
2021/05/13 12:35:21;;;;;;;1.60;1.50;;;;;;;20.39;36.62;99615.33;1751733;82;21064;-34
2021/05/13 12:37:48;;;;;;;2.47;1.45;;;;;;;20.51;36.22;99611.21;1752234;82;21638;-34
2021/05/13 12:40:17;;;;;;;2.02;1.82;;;;;;;20.54;35.60;99608.89;1747627;80;21174;-42
2021/05/13 12:42:44;;;;;;;4.03;1.70;;;;;;;20.49;35.83;99614.43;1752664;80;20999;-42
2021/05/13 12:45:21;;;;;;;3.75;1.82;;;;;;;20.43;36.03;99611.59;1752240;82;21605;-42
2021/05/13 12:48:02;;;;;;;6.45;1.85;;;;;;;20.43;35.14;99622.21;1754017;80;20979;-36
2021/05/13 12:50:30;;;;;;;4.22;1.65;;;;;;;20.46;35.35;99617.23;1747097;80;21074;-42
2021/05/13 12:53:17;;;;;;;2.47;1.60;;;;;;;20.52;34.57;99610.73;1752597;80;21032;-42
2021/05/13 12:55:44;;;;;;;6.67;1.70;;;;;;;20.57;33.11;99613.55;1747978;81;21082;-34
2021/05/13 12:58:14;;;;;;;8.13;1.85;;;;;;;20.60;32.05;99603.25;1745856;82;21594;-37
2021/05/13 13:00:42;;;;;;;1.62;1.52;;;;;;;20.64;32.01;99595.48;1746213;80;21084;-41
2021/05/13 13:03:17;;;;;;;7.05;2.08;;;;;;;20.79;31.38;99593.84;1744918;81;21547;-37
2021/05/13 13:05:42;;;;;;;3.87;1.67;;;;;;;20.90;30.91;99597.64;1746171;80;21072;-37
2021/05/13 13:08:10;;;;;;;13.10;2.35;;;;;;;20.83;31.84;99601.57;1766022;80;21016;-42
2021/05/13 13:10:45;;;;;;;4.45;1.90;;;;;;;20.72;33.05;99599.95;1748522;81;21752;-37
2021/05/13 13:13:23;;;;;;;4.60;2.33;;;;;;;20.56;33.30;99598.55;1747887;81;21053;-41
2021/05/13 13:15:50;;;;;;;4.28;2.15;;;;;;;20.47;33.87;99597.72;1748359;81;21152;-41
2021/05/13 13:18:17;;;;;;;5.33;1.92;;;;;;;20.48;35.04;99598.11;1747203;81;21048;-36
2021/05/13 13:20:45;;;;;;;3.85;2.60;;;;;;;20.54;34.38;99595.60;1750508;81;21100;-42
2021/05/13 13:23:27;;;;;;;3.10;2.37;;;;;;;20.51;33.68;99596.60;1777309;81;21653;-36
2021/05/13 13:25:56;;;;;;;3.37;3.05;;;;;;;20.41;34.75;99588.23;1771549;81;21126;-40
2021/05/13 13:28:23;;;;;;;6.40;2.60;;;;;;;20.37;34.92;99598.62;1746639;82;21039;-42
2021/05/13 13:30:52;;;;;;;2.95;2.62;;;;;;;20.34;35.24;99597.91;1746526;81;21064;-37
2021/05/13 13:33:22;;;;;;;7.42;2.20;;;;;;;20.27;36.07;99592.52;1746561;82;21061;-36
2021/05/13 13:35:51;;;;;;;5.15;2.42;;;;;;;20.20;36.38;99598.14;1742437;82;21088;-36
2021/05/13 13:38:18;;;;;;;4.55;3.70;;;;;;;20.14;36.71;99593.61;1776075;80;21054;-40
2021/05/13 13:40:47;;;;;;;3.52;2.37;;;;;;;20.08;37.14;99581.51;1773330;80;21063;-40
2021/05/13 13:43:16;;;;;;;7.47;3.10;;;;;;;20.07;37.16;99588.23;1746540;82;21076;-35
2021/05/13 13:45:43;;;;;;;2.67;2.47;;;;;;;20.12;37.41;99586.17;1746649;80;21127;-39
2021/05/13 13:48:14;;;;;;;8.65;2.75;;;;;;;20.19;36.52;99576.52;1746820;82;20996;-35
2021/05/13 13:50:47;;;;;;;13.50;2.85;;;;;;;20.17;36.10;99582.82;1746389;80;21646;-35
2021/05/13 13:53:17;;;;;;;6.28;2.17;;;;;;;20.10;36.59;99582.75;1745562;82;21072;-41
2021/05/13 13:55:45;;;;;;;8.30;2.75;;;;;;;20.17;36.05;99592.97;1754331;80;21142;-41
2021/05/13 13:58:11;;;;;;;3.33;1.90;;;;;;;20.37;36.08;99584.01;1755828;80;21014;-36
2021/05/13 14:00:38;;;;;;;4.35;2.50;;;;;;;20.46;34.79;99593.32;1788229;80;21098;-36
2021/05/13 14:03:05;;;;;;;6.65;2.47;;;;;;;20.39;35.09;99595.88;1758819;81;21441;-36
2021/05/13 14:05:32;;;;;;;3.25;2.22;;;;;;;20.26;35.80;99586.35;1758963;80;21078;-43
2021/05/13 14:08:00;;;;;;;3.37;2.33;;;;;;;20.18;36.48;99588.08;1759536;80;21059;-34
2021/05/13 14:10:28;;;;;;;8.35;2.37;;;;;;;20.11;36.28;99589.77;1773093;80;21525;-40
2021/05/13 14:12:56;;;;;;;3.92;2.33;;;;;;;19.98;36.02;99593.98;1728513;82;21083;-34
2021/05/13 14:15:23;;;;;;;3.60;2.50;;;;;;;19.79;36.65;99598.02;1689473;85;21093;-35
2021/05/13 14:17:50;;;;;;;6.87;2.40;;;;;;;19.64;37.86;99592.97;1689716;84;21148;-40
2021/05/13 14:20:18;;;;;;;5.80;2.50;;;;;;;19.53;38.38;99592.59;1700709;83;21615;-40
2021/05/13 14:22:45;;;;;;;5.30;2.15;;;;;;;19.40;38.27;99593.18;1700689;84;21070;-39
2021/05/13 14:25:12;;;;;;;4.55;2.55;;;;;;;19.27;38.42;99587.20;1700670;84;21074;-39
2021/05/13 14:27:39;;;;;;;3.98;2.08;;;;;;;19.16;38.81;99590.36;1700815;83;21064;-35
2021/05/13 14:30:08;;;;;;;6.87;2.37;;;;;;;19.06;39.13;99594.35;1701151;84;21088;-35
2021/05/13 14:32:34;;;;;;;7.20;2.55;;;;;;;19.00;39.43;99594.17;1706833;83;21704;-40
2021/05/13 14:35:02;;;;;;;5.35;2.67;;;;;;;18.94;39.93;99586.50;1701165;84;21103;-40
2021/05/13 14:37:28;;;;;;;5.65;3.25;;;;;;;18.91;39.86;99587.98;1706464;83;21070;-35
2021/05/13 14:39:55;;;;;;;3.42;2.50;;;;;;;18.89;40.44;99587.16;1701147;84;21083;-35
2021/05/13 14:42:23;;;;;;;3.62;2.27;;;;;;;18.88;40.52;99588.09;1701013;83;21103;-35
2021/05/13 14:44:50;;;;;;;5.55;2.85;;;;;;;18.85;40.44;99595.73;1701220;84;21052;-41
2021/05/13 14:47:16;;;;;;;5.17;2.83;;;;;;;18.81;40.43;99592.82;1701074;83;21124;-36
2021/05/13 14:49:43;;;;;;;10.80;2.92;;;;;;;18.76;42.13;99599.25;1701109;84;21094;-36
2021/05/13 14:52:10;;;;;;;3.20;2.90;;;;;;;18.65;43.64;99602.80;1701057;83;21124;-36
2021/05/13 14:54:36;;;;;;;8.43;2.95;;;;;;;18.49;44.48;99598.63;1701162;84;21095;-37
2021/05/13 14:57:11;;;;;;;4.20;2.72;;;;;;;18.28;45.18;99605.27;1683663;84;21171;-36
